sensor_id;sensor_type;location;lat;lon;timestamp;P1;durP1;ratioP1;P2;durP2;ratioP2
20411;SDS011;10365;52.578;8.138;2022-07-23T00:02:16;10.10;;;6.45;;
20411;SDS011;10365;52.578;8.138;2022-07-23T00:04:41;9.10;;;6.70;;
20411;SDS011;10365;52.578;8.138;2022-07-23T00:07:07;11.05;;;7.22;;
20411;SDS011;10365;52.578;8.138;2022-07-23T00:09:32;9.02;;;6.45;;
20411;SDS011;10365;52.578;8.138;2022-07-23T00:11:58;9.63;;;6.53;;
20411;SDS011;10365;52.578;8.138;2022-07-23T00:14:24;11.15;;;7.10;;
20411;SDS011;10365;52.578;8.138;2022-07-23T00:16:49;15.15;;;6.53;;
20411;SDS011;10365;52.578;8.138;2022-07-23T00:19:15;10.75;;;7.20;;
20411;SDS011;10365;52.578;8.138;2022-07-23T00:21:41;9.50;;;6.88;;
20411;SDS011;10365;52.578;8.138;2022-07-23T00:24:06;12.95;;;6.10;;
20411;SDS011;10365;52.578;8.138;2022-07-23T00:26:31;9.13;;;6.65;;
20411;SDS011;10365;52.578;8.138;2022-07-23T00:28:57;10.50;;;7.25;;
20411;SDS011;10365;52.578;8.138;2022-07-23T00:31:22;8.95;;;6.88;;
20411;SDS011;10365;52.578;8.138;2022-07-23T00:33:48;12.25;;;7.05;;
20411;SDS011;10365;52.578;8.138;2022-07-23T00:36:13;9.48;;;6.70;;
20411;SDS011;10365;52.578;8.138;2022-07-23T00:38:38;11.18;;;7.03;;
20411;SDS011;10365;52.578;8.138;2022-07-23T00:41:04;18.52;;;7.57;;
20411;SDS011;10365;52.578;8.138;2022-07-23T00:43:29;11.77;;;8.00;;
20411;SDS011;10365;52.578;8.138;2022-07-23T00:45:55;10.35;;;6.82;;
20411;SDS011;10365;52.578;8.138;2022-07-23T00:48:20;10.45;;;6.85;;
20411;SDS011;10365;52.578;8.138;2022-07-23T00:50:45;11.07;;;7.15;;
20411;SDS011;10365;52.578;8.138;2022-07-23T00:53:11;10.43;;;6.25;;
20411;SDS011;10365;52.578;8.138;2022-07-23T00:55:37;14.18;;;7.22;;
20411;SDS011;10365;52.578;8.138;2022-07-23T00:58:03;10.23;;;7.45;;
20411;SDS011;10365;52.578;8.138;2022-07-23T01:00:29;8.85;;;6.35;;
20411;SDS011;10365;52.578;8.138;2022-07-23T01:02:55;13.75;;;6.90;;
20411;SDS011;10365;52.578;8.138;2022-07-23T01:05:20;10.32;;;6.53;;
20411;SDS011;10365;52.578;8.138;2022-07-23T01:07:50;7.43;;;5.72;;
20411;SDS011;10365;52.578;8.138;2022-07-23T01:10:16;10.13;;;6.57;;
20411;SDS011;10365;52.578;8.138;2022-07-23T01:13:04;12.60;;;7.13;;
20411;SDS011;10365;52.578;8.138;2022-07-23T01:15:30;10.68;;;6.53;;
20411;SDS011;10365;52.578;8.138;2022-07-23T01:17:56;10.80;;;7.03;;
20411;SDS011;10365;52.578;8.138;2022-07-23T01:20:21;9.93;;;6.15;;
20411;SDS011;10365;52.578;8.138;2022-07-23T01:22:47;9.55;;;6.68;;
20411;SDS011;10365;52.578;8.138;2022-07-23T01:25:13;13.25;;;6.50;;
20411;SDS011;10365;52.578;8.138;2022-07-23T01:27:43;9.32;;;6.90;;
20411;SDS011;10365;52.578;8.138;2022-07-23T01:30:09;12.57;;;7.20;;
20411;SDS011;10365;52.578;8.138;2022-07-23T01:32:34;19.05;;;7.70;;
20411;SDS011;10365;52.578;8.138;2022-07-23T01:35:00;10.77;;;6.95;;
20411;SDS011;10365;52.578;8.138;2022-07-23T01:37:25;9.70;;;6.63;;
20411;SDS011;10365;52.578;8.138;2022-07-23T01:39:51;9.05;;;6.25;;
20411;SDS011;10365;52.578;8.138;2022-07-23T01:42:17;12.70;;;6.15;;
20411;SDS011;10365;52.578;8.138;2022-07-23T01:44:42;13.65;;;7.45;;
20411;SDS011;10365;52.578;8.138;2022-07-23T01:47:13;10.90;;;7.50;;
20411;SDS011;10365;52.578;8.138;2022-07-23T01:49:39;9.50;;;6.90;;
20411;SDS011;10365;52.578;8.138;2022-07-23T01:52:23;12.23;;;7.43;;
20411;SDS011;10365;52.578;8.138;2022-07-23T01:54:49;13.30;;;7.15;;
20411;SDS011;10365;52.578;8.138;2022-07-23T01:57:15;11.02;;;6.35;;
20411;SDS011;10365;52.578;8.138;2022-07-23T01:59:41;11.48;;;7.00;;
20411;SDS011;10365;52.578;8.138;2022-07-23T02:02:09;11.30;;;7.15;;
20411;SDS011;10365;52.578;8.138;2022-07-23T02:04:35;9.95;;;6.35;;
20411;SDS011;10365;52.578;8.138;2022-07-23T02:07:02;12.27;;;7.30;;
20411;SDS011;10365;52.578;8.138;2022-07-23T02:09:28;9.50;;;6.55;;
20411;SDS011;10365;52.578;8.138;2022-07-23T02:11:53;12.35;;;7.45;;
20411;SDS011;10365;52.578;8.138;2022-07-23T02:14:18;13.27;;;7.63;;
20411;SDS011;10365;52.578;8.138;2022-07-23T02:16:45;15.73;;;7.65;;
20411;SDS011;10365;52.578;8.138;2022-07-23T02:19:10;10.75;;;7.80;;
20411;SDS011;10365;52.578;8.138;2022-07-23T02:21:35;12.07;;;7.38;;
20411;SDS011;10365;52.578;8.138;2022-07-23T02:24:01;14.48;;;7.47;;
20411;SDS011;10365;52.578;8.138;2022-07-23T02:26:27;13.27;;;7.72;;
20411;SDS011;10365;52.578;8.138;2022-07-23T02:28:53;15.77;;;8.10;;
20411;SDS011;10365;52.578;8.138;2022-07-23T02:31:18;12.73;;;6.80;;
20411;SDS011;10365;52.578;8.138;2022-07-23T02:33:44;12.25;;;7.47;;
20411;SDS011;10365;52.578;8.138;2022-07-23T02:36:10;11.18;;;7.20;;
20411;SDS011;10365;52.578;8.138;2022-07-23T02:38:36;10.88;;;7.22;;
20411;SDS011;10365;52.578;8.138;2022-07-23T02:41:02;11.75;;;7.45;;
20411;SDS011;10365;52.578;8.138;2022-07-23T02:43:27;13.23;;;8.02;;
20411;SDS011;10365;52.578;8.138;2022-07-23T02:45:52;14.32;;;8.07;;
20411;SDS011;10365;52.578;8.138;2022-07-23T02:48:18;14.25;;;6.55;;
20411;SDS011;10365;52.578;8.138;2022-07-23T02:50:46;10.32;;;7.07;;
20411;SDS011;10365;52.578;8.138;2022-07-23T02:53:14;14.23;;;8.32;;
20411;SDS011;10365;52.578;8.138;2022-07-23T02:55:41;13.60;;;7.70;;
20411;SDS011;10365;52.578;8.138;2022-07-23T02:58:07;11.00;;;7.53;;
20411;SDS011;10365;52.578;8.138;2022-07-23T03:00:32;13.18;;;8.50;;
20411;SDS011;10365;52.578;8.138;2022-07-23T03:02:59;12.68;;;8.57;;
20411;SDS011;10365;52.578;8.138;2022-07-23T03:05:25;14.02;;;7.90;;
20411;SDS011;10365;52.578;8.138;2022-07-23T03:07:50;18.17;;;8.57;;
20411;SDS011;10365;52.578;8.138;2022-07-23T03:10:15;16.25;;;9.00;;
20411;SDS011;10365;52.578;8.138;2022-07-23T03:12:43;13.70;;;9.48;;
20411;SDS011;10365;52.578;8.138;2022-07-23T03:15:08;13.52;;;8.77;;
20411;SDS011;10365;52.578;8.138;2022-07-23T03:17:34;20.02;;;8.75;;
20411;SDS011;10365;52.578;8.138;2022-07-23T03:19:59;16.45;;;9.55;;
20411;SDS011;10365;52.578;8.138;2022-07-23T03:22:24;15.27;;;8.88;;
20411;SDS011;10365;52.578;8.138;2022-07-23T03:24:50;14.02;;;9.30;;
20411;SDS011;10365;52.578;8.138;2022-07-23T03:27:29;19.05;;;9.50;;
20411;SDS011;10365;52.578;8.138;2022-07-23T03:29:57;13.07;;;9.48;;
20411;SDS011;10365;52.578;8.138;2022-07-23T03:32:23;16.35;;;9.95;;
20411;SDS011;10365;52.578;8.138;2022-07-23T03:34:49;14.05;;;8.82;;
20411;SDS011;10365;52.578;8.138;2022-07-23T03:37:15;15.45;;;9.70;;
20411;SDS011;10365;52.578;8.138;2022-07-23T03:39:40;20.67;;;9.10;;
20411;SDS011;10365;52.578;8.138;2022-07-23T03:42:06;19.38;;;9.90;;
20411;SDS011;10365;52.578;8.138;2022-07-23T03:44:32;17.70;;;9.50;;
20411;SDS011;10365;52.578;8.138;2022-07-23T03:46:57;17.58;;;9.32;;
20411;SDS011;10365;52.578;8.138;2022-07-23T03:49:23;14.07;;;9.18;;
20411;SDS011;10365;52.578;8.138;2022-07-23T03:51:48;14.30;;;9.73;;
20411;SDS011;10365;52.578;8.138;2022-07-23T03:54:13;15.27;;;9.60;;
20411;SDS011;10365;52.578;8.138;2022-07-23T03:56:39;19.08;;;9.43;;
20411;SDS011;10365;52.578;8.138;2022-07-23T03:59:04;16.33;;;9.05;;
20411;SDS011;10365;52.578;8.138;2022-07-23T04:01:29;24.70;;;10.88;;
20411;SDS011;10365;52.578;8.138;2022-07-23T04:03:55;16.50;;;9.98;;
20411;SDS011;10365;52.578;8.138;2022-07-23T04:06:20;13.75;;;8.95;;
20411;SDS011;10365;52.578;8.138;2022-07-23T04:08:47;14.30;;;9.57;;
20411;SDS011;10365;52.578;8.138;2022-07-23T04:11:12;16.08;;;9.65;;
20411;SDS011;10365;52.578;8.138;2022-07-23T04:13:38;16.58;;;8.65;;
20411;SDS011;10365;52.578;8.138;2022-07-23T04:16:04;19.40;;;9.98;;
20411;SDS011;10365;52.578;8.138;2022-07-23T04:18:29;15.75;;;10.10;;
20411;SDS011;10365;52.578;8.138;2022-07-23T04:21:10;16.50;;;9.93;;
20411;SDS011;10365;52.578;8.138;2022-07-23T04:23:36;19.13;;;11.35;;
20411;SDS011;10365;52.578;8.138;2022-07-23T04:26:01;17.17;;;10.80;;
20411;SDS011;10365;52.578;8.138;2022-07-23T04:28:29;17.45;;;10.10;;
20411;SDS011;10365;52.578;8.138;2022-07-23T04:30:57;19.27;;;11.02;;
20411;SDS011;10365;52.578;8.138;2022-07-23T04:33:23;17.02;;;10.82;;
20411;SDS011;10365;52.578;8.138;2022-07-23T04:35:51;18.98;;;10.85;;
20411;SDS011;10365;52.578;8.138;2022-07-23T04:38:19;16.08;;;11.15;;
20411;SDS011;10365;52.578;8.138;2022-07-23T04:40:47;18.77;;;10.68;;
20411;SDS011;10365;52.578;8.138;2022-07-23T04:43:13;26.80;;;12.25;;
20411;SDS011;10365;52.578;8.138;2022-07-23T04:45:47;19.55;;;11.00;;
20411;SDS011;10365;52.578;8.138;2022-07-23T04:48:12;22.55;;;13.20;;
20411;SDS011;10365;52.578;8.138;2022-07-23T04:50:38;20.33;;;13.32;;
20411;SDS011;10365;52.578;8.138;2022-07-23T04:53:04;18.40;;;11.68;;
20411;SDS011;10365;52.578;8.138;2022-07-23T04:55:29;22.88;;;11.95;;
20411;SDS011;10365;52.578;8.138;2022-07-23T04:57:55;18.85;;;11.68;;
20411;SDS011;10365;52.578;8.138;2022-07-23T05:00:21;17.55;;;11.80;;
20411;SDS011;10365;52.578;8.138;2022-07-23T05:02:46;16.55;;;11.73;;
20411;SDS011;10365;52.578;8.138;2022-07-23T05:05:12;22.40;;;12.88;;
20411;SDS011;10365;52.578;8.138;2022-07-23T05:07:39;17.15;;;11.65;;
20411;SDS011;10365;52.578;8.138;2022-07-23T05:10:04;15.77;;;10.95;;
20411;SDS011;10365;52.578;8.138;2022-07-23T05:12:30;22.08;;;12.45;;
20411;SDS011;10365;52.578;8.138;2022-07-23T05:14:56;17.73;;;11.13;;
20411;SDS011;10365;52.578;8.138;2022-07-23T05:17:21;22.38;;;11.65;;
20411;SDS011;10365;52.578;8.138;2022-07-23T05:19:46;20.45;;;10.25;;
20411;SDS011;10365;52.578;8.138;2022-07-23T05:22:12;16.42;;;10.63;;
20411;SDS011;10365;52.578;8.138;2022-07-23T05:24:38;16.80;;;9.65;;
20411;SDS011;10365;52.578;8.138;2022-07-23T05:27:06;14.35;;;9.00;;
20411;SDS011;10365;52.578;8.138;2022-07-23T05:29:32;12.85;;;9.07;;
20411;SDS011;10365;52.578;8.138;2022-07-23T05:31:57;15.30;;;8.25;;
20411;SDS011;10365;52.578;8.138;2022-07-23T05:34:23;11.45;;;7.82;;
20411;SDS011;10365;52.578;8.138;2022-07-23T05:36:49;8.43;;;6.25;;
20411;SDS011;10365;52.578;8.138;2022-07-23T05:39:15;8.88;;;5.25;;
20411;SDS011;10365;52.578;8.138;2022-07-23T05:41:42;7.75;;;4.75;;
20411;SDS011;10365;52.578;8.138;2022-07-23T05:44:07;6.00;;;4.30;;
20411;SDS011;10365;52.578;8.138;2022-07-23T05:46:37;5.10;;;4.00;;
20411;SDS011;10365;52.578;8.138;2022-07-23T05:49:06;9.02;;;4.45;;
20411;SDS011;10365;52.578;8.138;2022-07-23T05:51:58;7.68;;;3.40;;
20411;SDS011;10365;52.578;8.138;2022-07-23T05:54:41;7.10;;;2.83;;
20411;SDS011;10365;52.578;8.138;2022-07-23T05:57:07;4.70;;;3.17;;
20411;SDS011;10365;52.578;8.138;2022-07-23T05:59:32;5.28;;;2.20;;
20411;SDS011;10365;52.578;8.138;2022-07-23T06:01:58;6.82;;;2.17;;
20411;SDS011;10365;52.578;8.138;2022-07-23T06:04:24;5.35;;;2.38;;
20411;SDS011;10365;52.578;8.138;2022-07-23T06:07:07;3.42;;;1.83;;
20411;SDS011;10365;52.578;8.138;2022-07-23T06:09:33;4.28;;;1.88;;
20411;SDS011;10365;52.578;8.138;2022-07-23T06:11:59;4.65;;;1.65;;
20411;SDS011;10365;52.578;8.138;2022-07-23T06:14:24;5.22;;;1.58;;
20411;SDS011;10365;52.578;8.138;2022-07-23T06:16:53;6.75;;;2.55;;
20411;SDS011;10365;52.578;8.138;2022-07-23T06:19:20;6.40;;;1.88;;
20411;SDS011;10365;52.578;8.138;2022-07-23T06:21:45;4.43;;;2.20;;
20411;SDS011;10365;52.578;8.138;2022-07-23T06:24:11;3.20;;;1.70;;
20411;SDS011;10365;52.578;8.138;2022-07-23T06:26:37;6.57;;;2.17;;
20411;SDS011;10365;52.578;8.138;2022-07-23T06:29:03;5.93;;;1.95;;
20411;SDS011;10365;52.578;8.138;2022-07-23T06:31:28;5.50;;;2.25;;
20411;SDS011;10365;52.578;8.138;2022-07-23T06:33:54;4.55;;;2.60;;
20411;SDS011;10365;52.578;8.138;2022-07-23T06:36:19;4.93;;;2.90;;
20411;SDS011;10365;52.578;8.138;2022-07-23T06:38:45;7.15;;;3.15;;
20411;SDS011;10365;52.578;8.138;2022-07-23T06:41:10;4.95;;;3.05;;
20411;SDS011;10365;52.578;8.138;2022-07-23T06:43:36;5.55;;;2.10;;
20411;SDS011;10365;52.578;8.138;2022-07-23T06:46:01;2.42;;;1.95;;
20411;SDS011;10365;52.578;8.138;2022-07-23T06:48:27;5.15;;;2.20;;
20411;SDS011;10365;52.578;8.138;2022-07-23T06:50:53;3.63;;;2.00;;
20411;SDS011;10365;52.578;8.138;2022-07-23T06:53:22;5.60;;;2.13;;
20411;SDS011;10365;52.578;8.138;2022-07-23T06:55:48;2.97;;;1.70;;
20411;SDS011;10365;52.578;8.138;2022-07-23T06:58:13;4.82;;;2.05;;
20411;SDS011;10365;52.578;8.138;2022-07-23T07:00:40;4.50;;;1.75;;
20411;SDS011;10365;52.578;8.138;2022-07-23T07:03:05;2.95;;;1.77;;
20411;SDS011;10365;52.578;8.138;2022-07-23T07:05:30;3.03;;;1.70;;
20411;SDS011;10365;52.578;8.138;2022-07-23T07:07:56;5.45;;;1.90;;
20411;SDS011;10365;52.578;8.138;2022-07-23T07:10:21;5.53;;;1.73;;
20411;SDS011;10365;52.578;8.138;2022-07-23T07:12:47;6.25;;;1.90;;
20411;SDS011;10365;52.578;8.138;2022-07-23T07:15:12;4.22;;;1.50;;
20411;SDS011;10365;52.578;8.138;2022-07-23T07:17:38;3.38;;;1.52;;
20411;SDS011;10365;52.578;8.138;2022-07-23T07:20:03;6.03;;;1.20;;
20411;SDS011;10365;52.578;8.138;2022-07-23T07:22:29;3.28;;;1.10;;
20411;SDS011;10365;52.578;8.138;2022-07-23T07:24:54;3.80;;;1.10;;
20411;SDS011;10365;52.578;8.138;2022-07-23T07:27:20;3.08;;;1.23;;
20411;SDS011;10365;52.578;8.138;2022-07-23T07:29:45;3.80;;;1.00;;
20411;SDS011;10365;52.578;8.138;2022-07-23T07:32:11;4.65;;;0.80;;
20411;SDS011;10365;52.578;8.138;2022-07-23T07:34:36;2.38;;;0.70;;
20411;SDS011;10365;52.578;8.138;2022-07-23T07:37:01;2.58;;;0.82;;
20411;SDS011;10365;52.578;8.138;2022-07-23T07:39:27;2.13;;;0.80;;
20411;SDS011;10365;52.578;8.138;2022-07-23T07:41:52;3.67;;;0.80;;
20411;SDS011;10365;52.578;8.138;2022-07-23T07:44:18;2.45;;;0.80;;
20411;SDS011;10365;52.578;8.138;2022-07-23T07:46:43;1.45;;;0.63;;
20411;SDS011;10365;52.578;8.138;2022-07-23T07:49:08;2.70;;;0.90;;
20411;SDS011;10365;52.578;8.138;2022-07-23T07:51:34;2.60;;;0.60;;
20411;SDS011;10365;52.578;8.138;2022-07-23T07:53:59;5.82;;;0.82;;
20411;SDS011;10365;52.578;8.138;2022-07-23T07:56:25;2.10;;;0.70;;
20411;SDS011;10365;52.578;8.138;2022-07-23T07:58:50;3.83;;;1.10;;
20411;SDS011;10365;52.578;8.138;2022-07-23T08:01:15;1.85;;;1.00;;
20411;SDS011;10365;52.578;8.138;2022-07-23T08:03:42;5.82;;;0.70;;
20411;SDS011;10365;52.578;8.138;2022-07-23T08:06:07;3.97;;;1.00;;
20411;SDS011;10365;52.578;8.138;2022-07-23T08:08:33;2.67;;;0.95;;
20411;SDS011;10365;52.578;8.138;2022-07-23T08:10:58;3.67;;;0.85;;
20411;SDS011;10365;52.578;8.138;2022-07-23T08:13:24;1.85;;;0.60;;
20411;SDS011;10365;52.578;8.138;2022-07-23T08:15:49;2.47;;;0.70;;
20411;SDS011;10365;52.578;8.138;2022-07-23T08:18:14;1.70;;;0.60;;
20411;SDS011;10365;52.578;8.138;2022-07-23T08:20:40;3.38;;;0.50;;
20411;SDS011;10365;52.578;8.138;2022-07-23T08:23:06;2.55;;;0.80;;
20411;SDS011;10365;52.578;8.138;2022-07-23T08:25:33;2.05;;;0.75;;
20411;SDS011;10365;52.578;8.138;2022-07-23T08:27:59;2.92;;;1.08;;
20411;SDS011;10365;52.578;8.138;2022-07-23T08:30:25;1.45;;;0.60;;
20411;SDS011;10365;52.578;8.138;2022-07-23T08:32:52;2.63;;;0.68;;
20411;SDS011;10365;52.578;8.138;2022-07-23T08:35:21;1.95;;;0.68;;
20411;SDS011;10365;52.578;8.138;2022-07-23T08:37:47;1.17;;;0.50;;
20411;SDS011;10365;52.578;8.138;2022-07-23T08:40:12;2.47;;;0.68;;
20411;SDS011;10365;52.578;8.138;2022-07-23T08:42:37;5.90;;;0.82;;
20411;SDS011;10365;52.578;8.138;2022-07-23T08:45:04;2.45;;;0.50;;
20411;SDS011;10365;52.578;8.138;2022-07-23T08:47:31;1.98;;;0.60;;
20411;SDS011;10365;52.578;8.138;2022-07-23T08:49:57;2.17;;;0.60;;
20411;SDS011;10365;52.578;8.138;2022-07-23T08:52:23;2.30;;;0.70;;
20411;SDS011;10365;52.578;8.138;2022-07-23T08:54:49;3.85;;;0.60;;
20411;SDS011;10365;52.578;8.138;2022-07-23T08:57:16;4.22;;;0.68;;
20411;SDS011;10365;52.578;8.138;2022-07-23T08:59:41;0.98;;;0.50;;
20411;SDS011;10365;52.578;8.138;2022-07-23T09:02:06;2.92;;;0.63;;
20411;SDS011;10365;52.578;8.138;2022-07-23T09:04:32;2.30;;;0.65;;
20411;SDS011;10365;52.578;8.138;2022-07-23T09:06:57;4.05;;;0.70;;
20411;SDS011;10365;52.578;8.138;2022-07-23T09:09:23;2.13;;;0.70;;
20411;SDS011;10365;52.578;8.138;2022-07-23T09:12:04;0.45;;;0.45;;
20411;SDS011;10365;52.578;8.138;2022-07-23T09:14:42;2.22;;;0.40;;
20411;SDS011;10365;52.578;8.138;2022-07-23T09:17:09;1.38;;;0.35;;
20411;SDS011;10365;52.578;8.138;2022-07-23T09:19:35;3.08;;;0.50;;
20411;SDS011;10365;52.578;8.138;2022-07-23T09:22:24;1.35;;;0.30;;
20411;SDS011;10365;52.578;8.138;2022-07-23T09:30:30;2.17;;;0.60;;
20411;SDS011;10365;52.578;8.138;2022-07-23T09:35:43;2.55;;;0.43;;
20411;SDS011;10365;52.578;8.138;2022-07-23T09:38:08;2.47;;;0.52;;
20411;SDS011;10365;52.578;8.138;2022-07-23T09:40:34;2.70;;;0.70;;
20411;SDS011;10365;52.578;8.138;2022-07-23T09:42:59;2.50;;;0.50;;
20411;SDS011;10365;52.578;8.138;2022-07-23T09:45:25;1.45;;;0.40;;
20411;SDS011;10365;52.578;8.138;2022-07-23T09:47:50;3.50;;;0.70;;
20411;SDS011;10365;52.578;8.138;2022-07-23T09:50:15;6.07;;;0.50;;
20411;SDS011;10365;52.578;8.138;2022-07-23T09:52:45;1.40;;;0.40;;
20411;SDS011;10365;52.578;8.138;2022-07-23T09:55:13;0.90;;;0.60;;
20411;SDS011;10365;52.578;8.138;2022-07-23T09:57:40;2.63;;;0.60;;
20411;SDS011;10365;52.578;8.138;2022-07-23T10:00:06;3.72;;;0.60;;
20411;SDS011;10365;52.578;8.138;2022-07-23T10:02:33;2.88;;;0.70;;
20411;SDS011;10365;52.578;8.138;2022-07-23T10:05:17;1.27;;;0.63;;
20411;SDS011;10365;52.578;8.138;2022-07-23T10:08:07;2.35;;;0.45;;
20411;SDS011;10365;52.578;8.138;2022-07-23T10:10:54;1.58;;;0.93;;
20411;SDS011;10365;52.578;8.138;2022-07-23T10:13:59;1.42;;;0.50;;
20411;SDS011;10365;52.578;8.138;2022-07-23T10:16:35;4.75;;;0.50;;
20411;SDS011;10365;52.578;8.138;2022-07-23T10:19:03;0.75;;;0.40;;
20411;SDS011;10365;52.578;8.138;2022-07-23T10:21:42;0.85;;;0.50;;
20411;SDS011;10365;52.578;8.138;2022-07-23T10:24:12;1.60;;;0.60;;
20411;SDS011;10365;52.578;8.138;2022-07-23T10:26:44;0.68;;;0.50;;
20411;SDS011;10365;52.578;8.138;2022-07-23T10:29:36;1.48;;;0.47;;
20411;SDS011;10365;52.578;8.138;2022-07-23T10:32:09;0.85;;;0.45;;
20411;SDS011;10365;52.578;8.138;2022-07-23T10:37:18;1.73;;;0.52;;
20411;SDS011;10365;52.578;8.138;2022-07-23T10:40:08;2.53;;;0.57;;
20411;SDS011;10365;52.578;8.138;2022-07-23T10:42:34;1.30;;;0.60;;
20411;SDS011;10365;52.578;8.138;2022-07-23T10:45:00;2.83;;;0.50;;
20411;SDS011;10365;52.578;8.138;2022-07-23T10:47:27;1.15;;;0.50;;
20411;SDS011;10365;52.578;8.138;2022-07-23T10:49:52;2.20;;;0.47;;
20411;SDS011;10365;52.578;8.138;2022-07-23T10:57:09;3.25;;;0.70;;
20411;SDS011;10365;52.578;8.138;2022-07-23T11:02:23;1.23;;;0.50;;
20411;SDS011;10365;52.578;8.138;2022-07-23T11:04:52;3.17;;;0.55;;
20411;SDS011;10365;52.578;8.138;2022-07-23T11:07:18;5.80;;;0.57;;
20411;SDS011;10365;52.578;8.138;2022-07-23T11:09:43;0.90;;;0.40;;
20411;SDS011;10365;52.578;8.138;2022-07-23T11:17:24;1.13;;;0.40;;
20411;SDS011;10365;52.578;8.138;2022-07-23T11:25:02;4.40;;;0.60;;
20411;SDS011;10365;52.578;8.138;2022-07-23T11:27:40;1.13;;;0.43;;
20411;SDS011;10365;52.578;8.138;2022-07-23T11:30:10;2.60;;;0.65;;
20411;SDS011;10365;52.578;8.138;2022-07-23T11:32:39;0.77;;;0.40;;
20411;SDS011;10365;52.578;8.138;2022-07-23T11:35:24;1.80;;;0.60;;
20411;SDS011;10365;52.578;8.138;2022-07-23T11:37:51;4.35;;;0.40;;
20411;SDS011;10365;52.578;8.138;2022-07-23T11:40:23;1.27;;;0.40;;
20411;SDS011;10365;52.578;8.138;2022-07-23T11:42:55;0.43;;;0.40;;
20411;SDS011;10365;52.578;8.138;2022-07-23T11:45:21;1.08;;;0.55;;
20411;SDS011;10365;52.578;8.138;2022-07-23T11:47:48;2.03;;;0.40;;
20411;SDS011;10365;52.578;8.138;2022-07-23T11:50:14;2.03;;;0.60;;
20411;SDS011;10365;52.578;8.138;2022-07-23T11:52:39;1.35;;;0.43;;
20411;SDS011;10365;52.578;8.138;2022-07-23T11:55:06;1.33;;;0.40;;
20411;SDS011;10365;52.578;8.138;2022-07-23T11:57:35;0.90;;;0.43;;
20411;SDS011;10365;52.578;8.138;2022-07-23T12:00:11;2.10;;;0.47;;
20411;SDS011;10365;52.578;8.138;2022-07-23T12:02:37;2.20;;;0.60;;
20411;SDS011;10365;52.578;8.138;2022-07-23T12:05:03;5.90;;;0.50;;
20411;SDS011;10365;52.578;8.138;2022-07-23T12:07:30;5.65;;;0.60;;
20411;SDS011;10365;52.578;8.138;2022-07-23T12:10:00;1.95;;;0.47;;
20411;SDS011;10365;52.578;8.138;2022-07-23T12:12:26;2.95;;;0.60;;
20411;SDS011;10365;52.578;8.138;2022-07-23T12:17:17;3.20;;;0.50;;
20411;SDS011;10365;52.578;8.138;2022-07-23T12:19:43;1.08;;;0.40;;
20411;SDS011;10365;52.578;8.138;2022-07-23T12:22:09;0.50;;;0.40;;
20411;SDS011;10365;52.578;8.138;2022-07-23T12:27:21;1.27;;;0.50;;
20411;SDS011;10365;52.578;8.138;2022-07-23T12:29:48;4.85;;;0.60;;
20411;SDS011;10365;52.578;8.138;2022-07-23T12:35:02;0.77;;;0.50;;
20411;SDS011;10365;52.578;8.138;2022-07-23T12:37:32;2.40;;;0.93;;
20411;SDS011;10365;52.578;8.138;2022-07-23T12:39:58;1.77;;;0.63;;
20411;SDS011;10365;52.578;8.138;2022-07-23T12:42:23;2.00;;;0.80;;
20411;SDS011;10365;52.578;8.138;2022-07-23T12:47:29;2.63;;;0.80;;
20411;SDS011;10365;52.578;8.138;2022-07-23T12:49:55;4.18;;;0.60;;
20411;SDS011;10365;52.578;8.138;2022-07-23T12:52:21;1.20;;;0.70;;
20411;SDS011;10365;52.578;8.138;2022-07-23T12:54:46;1.35;;;0.65;;
20411;SDS011;10365;52.578;8.138;2022-07-23T12:57:12;2.67;;;0.60;;
20411;SDS011;10365;52.578;8.138;2022-07-23T12:59:37;1.58;;;0.60;;
20411;SDS011;10365;52.578;8.138;2022-07-23T13:02:03;1.77;;;0.60;;
20411;SDS011;10365;52.578;8.138;2022-07-23T13:04:28;1.60;;;0.70;;
20411;SDS011;10365;52.578;8.138;2022-07-23T13:06:56;2.40;;;0.52;;
20411;SDS011;10365;52.578;8.138;2022-07-23T13:09:26;1.63;;;0.60;;
20411;SDS011;10365;52.578;8.138;2022-07-23T13:11:53;0.95;;;0.60;;
20411;SDS011;10365;52.578;8.138;2022-07-23T13:14:19;3.33;;;1.17;;
20411;SDS011;10365;52.578;8.138;2022-07-23T13:16:45;1.45;;;0.57;;
20411;SDS011;10365;52.578;8.138;2022-07-23T13:19:11;1.48;;;0.52;;
20411;SDS011;10365;52.578;8.138;2022-07-23T13:21:36;1.10;;;0.40;;
20411;SDS011;10365;52.578;8.138;2022-07-23T13:24:01;1.75;;;0.50;;
20411;SDS011;10365;52.578;8.138;2022-07-23T13:26:27;1.02;;;0.40;;
20411;SDS011;10365;52.578;8.138;2022-07-23T13:28:53;2.58;;;0.60;;
20411;SDS011;10365;52.578;8.138;2022-07-23T13:31:18;0.60;;;0.30;;
20411;SDS011;10365;52.578;8.138;2022-07-23T13:33:44;1.45;;;0.43;;
20411;SDS011;10365;52.578;8.138;2022-07-23T13:36:09;1.48;;;0.40;;
20411;SDS011;10365;52.578;8.138;2022-07-23T13:38:36;8.32;;;0.60;;
20411;SDS011;10365;52.578;8.138;2022-07-23T13:41:01;1.35;;;0.55;;
20411;SDS011;10365;52.578;8.138;2022-07-23T13:43:28;1.17;;;0.57;;
20411;SDS011;10365;52.578;8.138;2022-07-23T13:45:54;1.38;;;0.43;;
20411;SDS011;10365;52.578;8.138;2022-07-23T13:48:19;2.55;;;0.40;;
20411;SDS011;10365;52.578;8.138;2022-07-23T13:50:46;2.40;;;0.50;;
20411;SDS011;10365;52.578;8.138;2022-07-23T13:53:12;5.38;;;1.00;;
20411;SDS011;10365;52.578;8.138;2022-07-23T13:55:38;1.23;;;0.45;;
20411;SDS011;10365;52.578;8.138;2022-07-23T13:58:05;6.05;;;0.90;;
20411;SDS011;10365;52.578;8.138;2022-07-23T14:00:31;1.00;;;0.55;;
20411;SDS011;10365;52.578;8.138;2022-07-23T14:02:57;2.20;;;0.50;;
20411;SDS011;10365;52.578;8.138;2022-07-23T14:05:22;5.55;;;0.40;;
20411;SDS011;10365;52.578;8.138;2022-07-23T14:07:48;2.40;;;0.40;;
20411;SDS011;10365;52.578;8.138;2022-07-23T14:10:15;0.82;;;0.50;;
20411;SDS011;10365;52.578;8.138;2022-07-23T14:12:41;0.47;;;0.40;;
20411;SDS011;10365;52.578;8.138;2022-07-23T14:15:07;0.60;;;0.35;;
20411;SDS011;10365;52.578;8.138;2022-07-23T14:17:35;2.97;;;0.50;;
20411;SDS011;10365;52.578;8.138;2022-07-23T14:20:00;2.15;;;0.63;;
20411;SDS011;10365;52.578;8.138;2022-07-23T14:22:26;1.15;;;0.50;;
20411;SDS011;10365;52.578;8.138;2022-07-23T14:24:51;7.60;;;1.48;;
20411;SDS011;10365;52.578;8.138;2022-07-23T14:27:17;15.07;;;2.33;;
20411;SDS011;10365;52.578;8.138;2022-07-23T14:29:42;2.92;;;0.75;;
20411;SDS011;10365;52.578;8.138;2022-07-23T14:32:08;1.23;;;0.40;;
20411;SDS011;10365;52.578;8.138;2022-07-23T14:34:34;1.45;;;0.50;;
20411;SDS011;10365;52.578;8.138;2022-07-23T14:36:59;1.45;;;0.60;;
20411;SDS011;10365;52.578;8.138;2022-07-23T14:39:25;3.58;;;0.63;;
20411;SDS011;10365;52.578;8.138;2022-07-23T14:41:50;1.25;;;0.50;;
20411;SDS011;10365;52.578;8.138;2022-07-23T14:44:16;1.20;;;0.50;;
20411;SDS011;10365;52.578;8.138;2022-07-23T14:46:41;2.95;;;0.70;;
20411;SDS011;10365;52.578;8.138;2022-07-23T14:49:07;1.48;;;0.52;;
20411;SDS011;10365;52.578;8.138;2022-07-23T14:51:33;0.82;;;0.40;;
20411;SDS011;10365;52.578;8.138;2022-07-23T14:53:59;0.70;;;0.50;;
20411;SDS011;10365;52.578;8.138;2022-07-23T14:56:24;10.30;;;1.98;;
20411;SDS011;10365;52.578;8.138;2022-07-23T14:58:49;2.08;;;0.88;;
20411;SDS011;10365;52.578;8.138;2022-07-23T15:01:15;2.53;;;0.60;;
20411;SDS011;10365;52.578;8.138;2022-07-23T15:03:40;2.50;;;0.60;;
20411;SDS011;10365;52.578;8.138;2022-07-23T15:06:06;1.00;;;0.40;;
20411;SDS011;10365;52.578;8.138;2022-07-23T15:08:31;0.63;;;0.32;;
20411;SDS011;10365;52.578;8.138;2022-07-23T15:10:57;1.25;;;0.65;;
20411;SDS011;10365;52.578;8.138;2022-07-23T15:13:22;0.85;;;0.50;;
20411;SDS011;10365;52.578;8.138;2022-07-23T15:15:47;1.27;;;0.68;;
20411;SDS011;10365;52.578;8.138;2022-07-23T15:18:13;2.78;;;0.68;;
20411;SDS011;10365;52.578;8.138;2022-07-23T15:20:39;1.48;;;0.50;;
20411;SDS011;10365;52.578;8.138;2022-07-23T15:23:05;1.48;;;0.63;;